Time;durP1;ratioP1;P1;durP2;ratioP2;P2;SDS_P1;SDS_P2;PMS_P1;PMS_P2;Temp;Humidity;BMP_temperature;BMP_pressure;BME280_temperature;BME280_humidity;BME280_pressure;Samples;Min_cycle;Max_cycle;Signal;HPM_P1;HPM_P2
2023/10/11 00:03:05;;;;;;;4.40;3.00;;;16.40;99.90;;;;;;5107387;28;20052;-73
2023/10/11 00:05:37;;;;;;;0.63;0.63;;;16.40;99.90;;;;;;5099877;28;20059;-73
2023/10/11 00:08:03;;;;;;;0.75;0.75;;;16.40;99.90;;;;;;5098659;28;20139;-73
2023/10/11 00:10:29;;;;;;;1.75;1.25;;;16.40;99.90;;;;;;5095175;28;20044;-74
2023/10/11 00:12:58;;;;;;;1.23;1.15;;;16.40;99.90;;;;;;5093117;28;20040;-73
2023/10/11 00:15:29;;;;;;;2.58;0.60;;;16.50;99.90;;;;;;5100212;28;20096;-74
2023/10/11 00:17:57;;;;;;;1.02;1.02;;;16.50;99.90;;;;;;5083740;28;20039;-73
2023/10/11 00:20:35;;;;;;;1.98;1.83;;;16.50;99.90;;;;;;5099726;28;20043;-73
2023/10/11 00:23:01;;;;;;;2.20;2.05;;;16.50;99.90;;;;;;5100920;28;20078;-74
2023/10/11 00:25:27;;;;;;;12.95;3.00;;;16.50;99.90;;;;;;5096008;28;20434;-74
2023/10/11 00:27:58;;;;;;;1.45;1.35;;;16.60;99.90;;;;;;5100432;28;20211;-74
2023/10/11 00:30:29;;;;;;;2.60;2.40;;;16.60;99.90;;;;;;5103642;28;20107;-74
2023/10/11 00:32:56;;;;;;;7.25;2.92;;;16.60;99.90;;;;;;5100053;28;20044;-74
2023/10/11 00:35:24;;;;;;;1.23;1.13;;;16.60;99.90;;;;;;5103541;28;20044;-74
2023/10/11 00:37:51;;;;;;;0.77;0.75;;;16.60;99.90;;;;;;5100992;28;20067;-74
2023/10/11 00:40:32;;;;;;;2.10;1.60;;;16.60;99.90;;;;;;5093939;28;20977;-74
2023/10/11 00:42:58;;;;;;;2.08;1.00;;;16.60;99.90;;;;;;5098130;28;20071;-74
2023/10/11 00:45:30;;;;;;;1.10;0.98;;;16.60;99.90;;;;;;5101006;28;20039;-73
2023/10/11 00:47:58;;;;;;;2.78;2.05;;;16.60;99.90;;;;;;5082056;28;20061;-74
2023/10/11 00:50:24;;;;;;;1.13;0.80;;;16.60;99.90;;;;;;5099736;28;20039;-74
2023/10/11 00:52:51;;;;;;;2.13;1.40;;;16.60;99.90;;;;;;5114995;27;20104;-74
2023/10/11 00:55:18;;;;;;;1.00;0.95;;;16.60;99.90;;;;;;5093403;28;20086;-74
2023/10/11 00:57:47;;;;;;;3.47;2.03;;;16.50;99.90;;;;;;5101563;28;20048;-74
2023/10/11 01:00:20;;;;;;;3.80;3.15;;;16.60;99.90;;;;;;5098471;28;20040;-74
2023/10/11 01:02:47;;;;;;;3.25;1.65;;;16.60;99.90;;;;;;5098861;28;20055;-74
2023/10/11 01:05:13;;;;;;;0.55;0.55;;;16.60;99.90;;;;;;5105107;27;20474;-74
2023/10/11 01:07:39;;;;;;;1.17;0.88;;;16.60;99.90;;;;;;5105028;28;20091;-74
2023/10/11 01:10:07;;;;;;;1.25;1.15;;;16.50;99.90;;;;;;5100037;28;20458;-74
2023/10/11 01:12:33;;;;;;;1.15;1.15;;;16.50;99.90;;;;;;5101403;27;20047;-73
2023/10/11 01:14:58;;;;;;;;;;;16.50;99.90;;;;;;5104121;27;20446;-74
2023/10/11 01:17:31;;;;;;;0.70;0.70;;;16.50;99.90;;;;;;5102097;28;20016;-74
2023/10/11 01:20:01;;;;;;;1.98;1.88;;;16.50;99.90;;;;;;5099768;28;20044;-75
2023/10/11 01:22:27;;;;;;;1.73;1.63;;;16.50;99.90;;;;;;5100235;28;20052;-74
2023/10/11 01:24:55;;;;;;;2.35;1.38;;;16.50;99.90;;;;;;5102396;28;20105;-74
2023/10/11 01:27:25;;;;;;;0.60;0.60;;;16.50;99.90;;;;;;5103065;27;20048;-74
2023/10/11 01:29:51;;;;;;;1.13;1.10;;;16.50;99.90;;;;;;5107663;27;20268;-74
2023/10/11 01:32:17;;;;;;;0.82;0.60;;;16.40;99.90;;;;;;5101854;28;20052;-74
2023/10/11 01:34:44;;;;;;;;;;;16.40;99.90;;;;;;5099697;28;20048;-74
2023/10/11 01:37:10;;;;;;;0.65;0.65;;;16.40;99.90;;;;;;5099749;28;20047;-74
2023/10/11 01:39:35;;;;;;;;;;;16.40;99.90;;;;;;5096550;28;20081;-74
2023/10/11 01:42:01;;;;;;;0.50;0.50;;;16.40;99.90;;;;;;5102569;28;19926;-74
2023/10/11 01:44:27;;;;;;;;;;;16.40;99.90;;;;;;5105496;28;20040;-73
2023/10/11 01:46:53;;;;;;;1.00;0.80;;;16.40;99.90;;;;;;5087177;27;20441;-73
2023/10/11 01:49:19;;;;;;;2.75;2.53;;;16.40;99.90;;;;;;5097775;27;20111;-73
2023/10/11 01:51:47;;;;;;;;;;;16.40;99.90;;;;;;5099893;28;20039;-74
2023/10/11 01:54:18;;;;;;;6.63;1.67;;;16.40;99.90;;;;;;5099595;28;19935;-74
2023/10/11 01:56:45;;;;;;;1.27;1.17;;;16.40;99.90;;;;;;5105739;27;20571;-74
2023/10/11 01:59:12;;;;;;;1.13;1.13;;;16.40;99.90;;;;;;5102491;27;20044;-74
2023/10/11 02:01:41;;;;;;;1.70;1.58;;;16.40;99.90;;;;;;5086209;28;20097;-74
2023/10/11 02:04:28;;;;;;;2.70;1.73;;;16.40;99.90;;;;;;5081932;27;20048;-74
2023/10/11 02:06:55;;;;;;;1.02;1.02;;;16.40;99.90;;;;;;5097625;28;20051;-75
2023/10/11 02:09:21;;;;;;;4.90;1.95;;;16.40;99.90;;;;;;5100449;27;20036;-74
2023/10/11 02:11:51;;;;;;;;;;;16.40;99.90;;;;;;5099131;28;20051;-74
2023/10/11 02:14:22;;;;;;;5.57;1.85;;;16.40;99.90;;;;;;5097566;27;19920;-73
2023/10/11 02:16:47;;;;;;;1.05;1.02;;;16.30;99.90;;;;;;5098050;28;20074;-74
2023/10/11 02:19:15;;;;;;;3.72;2.55;;;16.30;99.90;;;;;;5098532;28;20106;-74
2023/10/11 02:21:44;;;;;;;1.63;1.52;;;16.30;99.90;;;;;;5101960;28;20051;-74
2023/10/11 02:24:14;;;;;;;1.67;1.58;;;16.30;99.90;;;;;;5100418;28;20044;-74
2023/10/11 02:26:41;;;;;;;1.38;0.68;;;16.40;99.90;;;;;;5099244;27;20448;-74
2023/10/11 02:29:15;;;;;;;1.45;1.35;;;16.40;99.90;;;;;;5099972;28;20039;-74
2023/10/11 02:31:40;;;;;;;2.03;1.80;;;16.40;99.90;;;;;;5081538;28;20047;-74
2023/10/11 02:34:15;;;;;;;2.03;1.60;;;16.40;99.90;;;;;;5099415;28;20063;-75
2023/10/11 02:36:44;;;;;;;1.52;0.95;;;16.40;99.90;;;;;;5096997;28;20051;-74
2023/10/11 02:39:26;;;;;;;2.92;2.70;;;16.40;99.90;;;;;;5100264;27;20051;-74
2023/10/11 02:41:57;;;;;;;1.80;1.67;;;16.30;99.90;;;;;;5100255;28;20059;-74
2023/10/11 02:44:23;;;;;;;7.47;1.90;;;16.30;99.90;;;;;;5096704;27;20047;-74
2023/10/11 02:46:50;;;;;;;1.05;0.75;;;16.30;99.90;;;;;;5104510;27;20843;-74
2023/10/11 02:49:18;;;;;;;1.20;1.05;;;16.30;99.90;;;;;;5100439;28;20047;-74
2023/10/11 02:52:05;;;;;;;1.70;1.60;;;16.20;99.90;;;;;;5100648;28;20048;-74
2023/10/11 02:54:34;;;;;;;2.45;2.25;;;16.20;99.90;;;;;;5099488;28;20039;-73
2023/10/11 02:57:06;;;;;;;0.85;0.63;;;16.20;99.90;;;;;;5097924;27;20055;-74
2023/10/11 02:59:33;;;;;;;1.33;1.27;;;16.10;99.90;;;;;;5100484;27;20649;-74
2023/10/11 03:01:59;;;;;;;1.35;1.17;;;16.10;99.90;;;;;;5100750;28;20383;-73
2023/10/11 03:04:41;;;;;;;0.75;0.60;;;16.10;99.90;;;;;;5102882;27;20043;-73
2023/10/11 03:07:23;;;;;;;4.97;1.35;;;16.00;99.90;;;;;;5082542;28;20052;-73
2023/10/11 03:09:50;;;;;;;3.35;2.50;;;16.00;99.90;;;;;;5097649;28;20070;-74
2023/10/11 03:12:19;;;;;;;1.25;1.08;;;16.00;99.90;;;;;;5100365;28;20172;-73
2023/10/11 03:14:46;;;;;;;0.93;0.93;;;16.00;99.90;;;;;;5101416;27;20130;-73
2023/10/11 03:17:15;;;;;;;0.65;0.57;;;16.00;99.90;;;;;;5100847;28;20043;-74
2023/10/11 03:19:45;;;;;;;0.90;0.90;;;16.10;99.90;;;;;;5103087;28;20042;-73
2023/10/11 03:22:20;;;;;;;2.72;2.53;;;16.10;99.90;;;;;;5097576;28;20066;-73
2023/10/11 03:24:53;;;;;;;3.33;2.83;;;16.10;99.90;;;;;;5084808;28;20043;-74
2023/10/11 03:27:23;;;;;;;1.00;0.93;;;16.20;99.90;;;;;;5098009;27;20147;-73
2023/10/11 03:29:50;;;;;;;0.98;0.93;;;16.20;99.90;;;;;;5095206;28;20047;-73
2023/10/11 03:32:18;;;;;;;2.33;1.35;;;16.20;99.90;;;;;;5103550;28;20047;-74
2023/10/11 03:34:43;;;;;;;3.97;3.60;;;16.20;99.90;;;;;;5100539;28;20040;-74
2023/10/11 03:37:18;;;;;;;4.07;2.78;;;16.20;99.90;;;;;;5098563;28;20050;-73
2023/10/11 03:39:44;;;;;;;0.75;0.75;;;16.20;99.90;;;;;;5101820;28;20063;-75
2023/10/11 03:44:40;;;;;;;1.45;1.10;;;16.20;99.90;;;;;;5100042;28;20051;-73
2023/10/11 03:47:09;;;;;;;1.10;0.93;;;16.20;99.90;;;;;;5100331;28;20040;-73
2023/10/11 03:52:22;;;;;;;1.10;0.88;;;16.10;99.90;;;;;;5100881;28;20058;-74
2023/10/11 03:55:05;;;;;;;5.50;2.67;;;16.10;99.90;;;;;;5102189;28;20081;-74
2023/10/11 03:57:36;;;;;;;2.00;1.88;;;16.10;99.90;;;;;;5097142;28;20077;-73
2023/10/11 04:00:48;;;;;;;1.88;1.10;;;16.10;99.90;;;;;;5096907;28;20055;-74
2023/10/11 04:02:56;;;;;;;1.65;1.48;;;16.10;99.90;;;;;;5088844;28;20059;-74
2023/10/11 04:05:22;;;;;;;0.60;0.60;;;16.00;99.90;;;;;;5095648;28;20797;-74
2023/10/11 04:07:48;;;;;;;1.75;1.65;;;16.00;99.90;;;;;;5102605;28;20044;-74
2023/10/11 04:10:20;;;;;;;;;;;16.00;99.90;;;;;;5098573;28;20160;-74
2023/10/11 04:12:47;;;;;;;2.20;1.45;;;16.00;99.90;;;;;;5099200;28;20365;-74
2023/10/11 04:15:24;;;;;;;2.00;1.73;;;16.00;99.90;;;;;;5094573;28;20047;-73
2023/10/11 04:17:50;;;;;;;;;;;16.00;99.90;;;;;;5096828;28;20107;-73
2023/10/11 04:20:21;;;;;;;2.75;1.27;;;16.00;99.90;;;;;;5096229;28;19978;-74
2023/10/11 04:23:01;;;;;;;1.25;1.23;;;16.00;99.90;;;;;;5099207;28;20155;-74
2023/10/11 04:25:32;;;;;;;2.92;0.82;;;16.00;99.90;;;;;;5100247;28;20122;-74
2023/10/11 04:27:58;;;;;;;2.70;2.50;;;16.00;99.90;;;;;;5104910;28;20043;-74
2023/10/11 04:30:27;;;;;;;0.52;0.52;;;15.90;99.90;;;;;;5098479;28;20037;-74
2023/10/11 04:33:01;;;;;;;0.88;0.82;;;15.90;99.90;;;;;;5093459;28;20048;-74
2023/10/11 04:35:56;;;;;;;0.73;0.73;;;15.90;99.90;;;;;;5101403;28;20800;-74
2023/10/11 04:38:13;;;;;;;0.80;0.65;;;15.90;99.90;;;;;;5087385;28;20379;-74
2023/10/11 04:40:42;;;;;;;;;;;15.90;99.90;;;;;;5098278;28;20058;-73
2023/10/11 04:43:29;;;;;;;1.73;1.63;;;15.90;99.90;;;;;;5103423;28;19923;-74
2023/10/11 04:46:07;;;;;;;0.50;0.50;;;15.90;99.90;;;;;;5105579;27;20844;-74
2023/10/11 04:48:33;;;;;;;1.48;0.88;;;15.90;99.90;;;;;;5108820;27;20839;-74
2023/10/11 04:51:06;;;;;;;0.95;0.90;;;15.90;99.90;;;;;;5108537;27;20048;-74
2023/10/11 04:53:34;;;;;;;1.73;1.63;;;15.90;99.90;;;;;;5106696;28;20043;-74
2023/10/11 04:56:09;;;;;;;0.70;0.70;;;15.90;99.90;;;;;;5097852;28;20056;-73
2023/10/11 04:58:50;;;;;;;0.75;0.55;;;15.90;99.90;;;;;;5092418;28;20140;-73
2023/10/11 05:01:22;;;;;;;1.88;1.35;;;15.80;99.90;;;;;;5108133;27;20076;-73
2023/10/11 05:04:00;;;;;;;0.60;0.60;;;15.90;99.90;;;;;;5103384;28;20046;-74
2023/10/11 05:06:39;;;;;;;1.42;1.33;;;15.90;99.90;;;;;;5099497;28;20043;-74
2023/10/11 05:09:13;;;;;;;2.20;1.75;;;16.00;99.90;;;;;;5103821;27;20071;-74
2023/10/11 05:11:44;;;;;;;0.60;0.60;;;16.00;99.90;;;;;;5082814;27;20488;-73
2023/10/11 05:14:26;;;;;;;0.32;0.32;;;16.00;99.90;;;;;;5105807;27;20049;-74
2023/10/11 05:16:58;;;;;;;0.80;0.80;;;16.00;99.90;;;;;;5099229;27;20056;-74
2023/10/11 05:19:34;;;;;;;1.65;1.27;;;16.00;99.90;;;;;;5098042;28;20362;-74
2023/10/11 05:22:03;;;;;;;0.50;0.50;;;16.00;99.90;;;;;;5097956;28;20051;-75
2023/10/11 05:27:11;;;;;;;1.10;1.10;;;16.10;99.90;;;;;;5104382;27;20180;-74
2023/10/11 05:30:44;;;;;;;0.70;0.70;;;16.10;99.90;;;;;;5104823;27;20061;-75
2023/10/11 05:32:50;;;;;;;1.90;1.15;;;16.10;99.90;;;;;;5089157;27;20055;-73
2023/10/11 05:35:43;;;;;;;1.17;1.08;;;16.10;99.90;;;;;;5099944;28;20032;-74
2023/10/11 05:52:02;;;;;;;2.13;1.27;;;16.30;99.90;;;;;;5103231;28;20062;-74
2023/10/11 05:54:34;;;;;;;14.52;2.58;;;16.30;99.90;;;;;;5098171;28;20447;-74
2023/10/11 05:57:03;;;;;;;0.90;0.65;;;16.40;99.90;;;;;;5107125;27;20058;-75
2023/10/11 05:59:35;;;;;;;3.33;1.48;;;16.40;99.90;;;;;;5109843;27;20867;-74
2023/10/11 06:02:23;;;;;;;1.10;1.10;;;16.40;99.90;;;;;;5115495;27;20051;-74
2023/10/11 06:04:48;;;;;;;0.82;0.82;;;16.40;99.90;;;;;;5077661;28;20131;-74
2023/10/11 06:07:15;;;;;;;;;;;16.40;99.90;;;;;;5101702;28;20139;-74
2023/10/11 06:09:52;;;;;;;1.00;1.00;;;16.50;99.90;;;;;;5112063;27;20006;-73
2023/10/11 06:12:29;;;;;;;2.05;1.15;;;16.50;99.90;;;;;;5109002;27;20132;-73
2023/10/11 06:14:56;;;;;;;6.75;1.25;;;16.60;99.90;;;;;;5105464;28;20443;-74
2023/10/11 06:17:41;;;;;;;1.30;1.17;;;16.60;99.90;;;;;;5108968;27;20460;-74
2023/10/11 06:20:25;;;;;;;1.10;1.10;;;16.60;99.90;;;;;;5095728;28;20044;-74
2023/10/11 06:22:51;;;;;;;1.55;1.35;;;16.60;99.90;;;;;;5077478;28;20063;-75
2023/10/11 06:25:23;;;;;;;0.68;0.68;;;16.60;99.90;;;;;;5095079;27;20043;-75
2023/10/11 06:30:23;;;;;;;3.38;2.00;;;16.70;99.90;;;;;;5105671;28;20048;-74
2023/10/11 06:32:52;;;;;;;;;;;16.70;99.90;;;;;;5107143;28;20554;-73
2023/10/11 06:35:24;;;;;;;0.80;0.80;;;16.70;99.90;;;;;;5108024;28;20018;-74
2023/10/11 06:37:54;;;;;;;1.13;1.08;;;16.70;99.90;;;;;;5107193;28;20108;-73
2023/10/11 06:40:38;;;;;;;7.90;2.45;;;16.70;99.90;;;;;;5088169;28;20056;-73
2023/10/11 06:43:08;;;;;;;0.98;0.98;;;16.70;99.90;;;;;;5107575;28;20052;-75
2023/10/11 06:45:35;;;;;;;1.63;0.88;;;16.80;99.90;;;;;;5107772;28;20389;-74
2023/10/11 06:48:08;;;;;;;4.03;1.40;;;16.80;99.90;;;;;;5107475;28;20082;-74
2023/10/11 06:50:37;;;;;;;3.05;2.55;;;16.80;99.90;;;;;;5105602;28;20050;-73
2023/10/11 06:53:07;;;;;;;0.98;0.73;;;16.80;99.90;;;;;;5107279;28;20070;-73
2023/10/11 06:55:35;;;;;;;0.95;0.88;;;16.90;99.90;;;;;;5105538;28;20127;-73
2023/10/11 06:58:08;;;;;;;1.42;1.33;;;16.90;99.90;;;;;;5106391;27;20063;-74
2023/10/11 07:00:37;;;;;;;1.15;0.95;;;16.90;99.90;;;;;;5108268;27;20036;-74
2023/10/11 07:03:21;;;;;;;1.30;1.15;;;16.90;99.90;;;;;;5106958;28;20179;-73
2023/10/11 07:05:56;;;;;;;0.60;0.60;;;17.00;99.90;;;;;;5105964;27;20051;-74
2023/10/11 07:08:31;;;;;;;3.40;2.30;;;17.00;99.90;;;;;;5102778;28;21375;-74
2023/10/11 07:14:00;;;;;;;1.33;1.23;;;17.10;99.90;;;;;;5076159;28;20047;-73
2023/10/11 07:16:27;;;;;;;0.80;0.77;;;17.10;99.90;;;;;;5107171;28;20112;-74
2023/10/11 07:18:56;;;;;;;3.97;2.53;;;17.10;99.90;;;;;;5103870;28;20047;-73
2023/10/11 07:21:26;;;;;;;0.70;0.70;;;17.20;99.90;;;;;;5104350;27;20055;-73
2023/10/11 07:26:23;;;;;;;1.58;1.48;;;17.30;99.90;;;;;;5106713;28;20164;-74
2023/10/11 07:28:53;;;;;;;0.43;0.43;;;17.30;99.90;;;;;;5103131;28;20051;-74
2023/10/11 07:31:20;;;;;;;0.55;0.40;;;17.40;99.90;;;;;;5104960;27;20046;-74
2023/10/11 07:33:50;;;;;;;1.23;1.13;;;17.40;99.90;;;;;;5107352;27;20118;-74
2023/10/11 07:36:18;;;;;;;1.05;1.05;;;17.40;99.90;;;;;;5104677;28;20111;-74
2023/10/11 07:38:54;;;;;;;1.13;0.60;;;16.20;99.90;;;;;;5103765;27;20043;-74
2023/10/11 07:41:28;;;;;;;1.20;1.13;;;17.50;99.90;;;;;;5090693;28;20051;-74
2023/10/11 07:43:57;;;;;;;1.42;1.33;;;17.50;99.90;;;;;;5104027;28;20293;-74
2023/10/11 07:46:23;;;;;;;8.43;2.15;;;17.50;99.90;;;;;;5102908;28;20036;-75
2023/10/11 07:48:56;;;;;;;1.85;1.10;;;17.60;99.90;;;;;;5105003;28;20074;-75
2023/10/11 07:51:25;;;;;;;1.92;1.80;;;17.70;99.90;;;;;;5108334;28;20108;-74
2023/10/11 07:53:51;;;;;;;0.57;0.57;;;17.70;99.90;;;;;;5104802;28;20155;-75
2023/10/11 07:56:16;;;;;;;;;;;17.70;99.90;;;;;;5092374;28;20084;-74
2023/10/11 07:58:45;;;;;;;1.65;1.10;;;17.80;99.90;;;;;;5110857;28;20439;-75
2023/10/11 08:01:15;;;;;;;0.90;0.90;;;17.80;99.90;;;;;;5091804;28;20044;-74
2023/10/11 08:03:44;;;;;;;1.25;1.17;;;17.80;99.90;;;;;;5100003;28;20039;-75
2023/10/11 08:06:14;;;;;;;1.48;1.40;;;17.80;99.90;;;;;;5107312;28;20051;-75
2023/10/11 08:08:43;;;;;;;5.18;2.80;;;17.50;99.90;;;;;;5111919;28;20810;-74
2023/10/11 08:11:22;;;;;;;1.25;1.15;;;17.80;99.90;;;;;;5105795;27;20043;-75
2023/10/11 08:13:49;;;;;;;2.88;2.05;;;17.70;99.90;;;;;;5109034;27;20044;-75
2023/10/11 08:16:18;;;;;;;0.77;0.77;;;17.70;99.90;;;;;;5092368;28;20097;-74
2023/10/11 08:18:46;;;;;;;0.68;0.68;;;17.70;99.90;;;;;;5105976;28;20438;-74
2023/10/11 08:21:12;;;;;;;1.20;1.10;;;17.60;99.90;;;;;;5095557;28;20063;-74
2023/10/11 08:23:42;;;;;;;3.10;1.23;;;17.60;99.90;;;;;;5095055;28;20074;-75
2023/10/11 08:26:08;;;;;;;2.03;1.85;;;17.60;99.90;;;;;;5111241;28;20490;-74
2023/10/11 08:28:45;;;;;;;0.90;0.90;;;17.70;99.90;;;;;;5115328;27;20126;-74
2023/10/11 08:31:10;;;;;;;0.82;0.82;;;17.70;99.90;;;;;;5109570;27;20106;-74
2023/10/11 08:33:37;;;;;;;5.65;0.88;;;17.70;99.90;;;;;;5111191;28;20537;-74
2023/10/11 08:36:10;;;;;;;0.63;0.63;;;17.70;99.90;;;;;;5093191;28;20051;-74
2023/10/11 08:38:36;;;;;;;3.28;1.88;;;17.70;99.90;;;;;;5102974;28;20042;-73
2023/10/11 08:41:06;;;;;;;;;;;17.70;99.90;;;;;;5109300;27;20064;-73
2023/10/11 08:43:32;;;;;;;2.05;1.40;;;17.70;99.90;;;;;;5106823;28;19977;-74
2023/10/11 08:46:01;;;;;;;;;;;17.80;99.90;;;;;;5111223;28;20091;-74
2023/10/11 08:48:29;;;;;;;3.38;1.92;;;17.80;99.90;;;;;;5110049;28;19932;-74
2023/10/11 08:50:56;;;;;;;1.23;0.85;;;17.80;99.90;;;;;;5112316;27;20079;-74
2023/10/11 08:53:24;;;;;;;1.20;0.82;;;17.80;99.90;;;;;;5107566;28;20044;-74
2023/10/11 08:55:54;;;;;;;1.30;1.20;;;17.80;99.90;;;;;;5109801;28;20047;-74
2023/10/11 08:58:23;;;;;;;1.85;1.35;;;17.80;99.90;;;;;;5105602;27;20047;-74
2023/10/11 09:00:55;;;;;;;2.20;2.03;;;17.70;99.90;;;;;;5111204;28;20043;-74
2023/10/11 09:03:23;;;;;;;1.25;1.25;;;17.60;99.90;;;;;;5113389;27;20043;-74
2023/10/11 09:05:58;;;;;;;1.70;1.60;;;17.60;99.90;;;;;;5110609;27;20258;-74
2023/10/11 09:08:31;;;;;;;1.77;1.63;;;17.60;99.90;;;;;;5109857;28;20074;-73
2023/10/11 09:11:05;;;;;;;0.90;0.63;;;17.60;99.90;;;;;;5112218;28;20515;-73
2023/10/11 09:13:36;;;;;;;0.38;0.38;;;17.60;99.90;;;;;;5114877;27;20079;-74
2023/10/11 09:16:08;;;;;;;0.70;0.70;;;17.60;99.90;;;;;;5091198;28;20581;-74
2023/10/11 09:18:34;;;;;;;0.68;0.57;;;17.60;99.90;;;;;;5107130;28;20055;-74
2023/10/11 09:21:09;;;;;;;0.10;0.10;;;17.70;99.90;;;;;;5109526;28;20047;-73
2023/10/11 09:23:46;;;;;;;1.40;1.08;;;17.80;99.90;;;;;;5105253;27;20118;-73
2023/10/11 09:26:13;;;;;;;;;;;17.80;99.90;;;;;;5110528;27;20079;-74
2023/10/11 09:28:41;;;;;;;0.43;0.43;;;17.90;99.90;;;;;;5110881;27;19966;-74
2023/10/11 09:31:12;;;;;;;0.65;0.63;;;17.90;99.90;;;;;;5107808;28;20054;-74
2023/10/11 09:33:40;;;;;;;1.67;1.58;;;18.00;99.90;;;;;;5108228;28;20082;-73
2023/10/11 09:36:08;;;;;;;0.20;0.20;;;18.00;99.90;;;;;;5109383;28;20485;-74
2023/10/11 09:38:39;;;;;;;1.45;1.35;;;18.10;99.90;;;;;;5083543;28;20053;-73
2023/10/11 09:41:08;;;;;;;1.15;1.05;;;18.10;99.90;;;;;;5121215;27;20071;-74
2023/10/11 09:43:44;;;;;;;0.52;0.52;;;18.20;99.90;;;;;;5111008;28;20085;-74
2023/10/11 09:46:13;;;;;;;0.82;0.82;;;18.30;99.90;;;;;;5101404;28;20047;-74
2023/10/11 09:48:42;;;;;;;9.05;1.20;;;18.30;99.90;;;;;;5102323;28;20426;-73
2023/10/11 09:51:14;;;;;;;1.08;1.08;;;18.30;99.90;;;;;;5106732;28;20401;-73
2023/10/11 09:53:42;;;;;;;1.35;0.77;;;18.20;99.90;;;;;;5108594;27;20043;-73
2023/10/11 09:56:22;;;;;;;0.77;0.57;;;18.20;99.90;;;;;;5110004;28;20084;-74
2023/10/11 09:59:22;;;;;;;0.40;0.40;;;18.20;99.90;;;;;;5109560;27;20644;-73
2023/10/11 10:02:12;;;;;;;0.68;0.68;;;18.20;99.90;;;;;;5109041;27;20096;-73
2023/10/11 10:04:50;;;;;;;5.35;1.75;;;18.20;99.90;;;;;;5106737;27;20047;-74
2023/10/11 10:07:32;;;;;;;0.95;0.95;;;18.20;99.90;;;;;;5109113;28;20050;-73
2023/10/11 10:10:00;;;;;;;0.95;0.70;;;18.30;99.90;;;;;;5105634;28;20122;-73
2023/10/11 10:12:30;;;;;;;2.28;1.05;;;18.50;99.90;;;;;;5109148;28;20051;-74
2023/10/11 10:15:23;;;;;;;0.80;0.80;;;18.60;99.90;;;;;;5109126;27;20081;-73
2023/10/11 10:18:00;;;;;;;0.85;0.85;;;18.60;99.90;;;;;;5103867;28;20065;-74
2023/10/11 10:20:44;;;;;;;1.05;1.05;;;18.60;99.90;;;;;;5107628;28;20362;-74
2023/10/11 10:23:15;;;;;;;0.40;0.40;;;18.60;99.90;;;;;;5107728;27;20054;-74
2023/10/11 10:26:06;;;;;;;0.70;0.70;;;18.50;99.90;;;;;;5108723;28;20466;-74
2023/10/11 10:28:42;;;;;;;0.80;0.43;;;18.40;99.90;;;;;;5104736;27;20040;-74
2023/10/11 10:31:09;;;;;;;0.95;0.95;;;18.40;99.90;;;;;;5103291;28;20089;-74
2023/10/11 10:33:51;;;;;;;6.68;1.75;;;18.30;99.90;;;;;;5103699;27;20048;-74
2023/10/11 10:36:28;;;;;;;1.42;1.33;;;18.30;99.90;;;;;;5103653;28;20075;-73
2023/10/11 10:39:00;;;;;;;1.13;0.65;;;18.40;99.90;;;;;;5108325;27;20039;-73
2023/10/11 10:41:31;;;;;;;0.70;0.43;;;18.50;99.90;;;;;;5106941;28;20085;-73
2023/10/11 10:44:08;;;;;;;0.80;0.80;;;18.70;99.90;;;;;;5107624;28;20035;-75
2023/10/11 10:46:49;;;;;;;0.32;0.32;;;18.80;99.90;;;;;;5106851;27;20101;-74
2023/10/11 10:49:23;;;;;;;5.95;3.10;;;19.00;99.90;;;;;;5102819;27;20043;-75
2023/10/11 10:51:48;;;;;;;0.95;0.55;;;19.20;99.90;;;;;;5110909;27;20043;-74
2023/10/11 10:54:17;;;;;;;;;;;19.40;99.90;;;;;;5108477;27;20054;-73
2023/10/11 10:56:47;;;;;;;0.57;0.57;;;19.40;99.90;;;;;;5123608;27;20456;-74
2023/10/11 10:59:14;;;;;;;0.43;0.43;;;19.40;99.90;;;;;;5105502;28;20049;-74
2023/10/11 11:01:44;;;;;;;0.40;0.40;;;19.40;99.90;;;;;;5106200;27;20043;-73
2023/10/11 11:04:11;;;;;;;0.63;0.63;;;19.30;99.90;;;;;;5106818;28;20119;-73
2023/10/11 11:06:44;;;;;;;2.85;1.35;;;19.30;99.90;;;;;;5106891;28;20043;-73
2023/10/11 11:09:15;;;;;;;0.80;0.50;;;19.30;99.90;;;;;;5106170;28;20036;-73
2023/10/11 11:11:46;;;;;;;0.50;0.50;;;19.40;99.90;;;;;;5102994;27;20836;-72
2023/10/11 11:14:13;;;;;;;0.28;0.28;;;19.40;99.90;;;;;;5101651;28;20090;-73
2023/10/11 11:16:42;;;;;;;0.63;0.63;;;19.40;99.90;;;;;;5103187;28;20083;-73
2023/10/11 11:19:19;;;;;;;0.80;0.80;;;19.40;99.90;;;;;;5105545;28;20032;-73
2023/10/11 11:21:45;;;;;;;1.08;0.60;;;19.30;99.90;;;;;;5106576;27;20042;-74
2023/10/11 11:24:15;;;;;;;0.50;0.50;;;19.30;99.90;;;;;;5106342;28;20055;-74
2023/10/11 11:26:41;;;;;;;0.90;0.90;;;19.30;99.90;;;;;;5108405;28;20043;-74
2023/10/11 11:29:14;;;;;;;0.25;0.25;;;19.30;99.90;;;;;;5094460;28;20585;-73
2023/10/11 11:31:52;;;;;;;0.75;0.75;;;19.30;99.90;;;;;;5105754;28;20123;-73
2023/10/11 11:34:28;;;;;;;1.85;1.75;;;19.30;99.90;;;;;;5103730;27;20122;-74
2023/10/11 11:36:58;;;;;;;0.60;0.60;;;19.40;99.90;;;;;;5105151;28;20047;-74
2023/10/11 11:39:27;;;;;;;1.05;1.05;;;19.40;99.90;;;;;;5099273;27;20064;-74
2023/10/11 11:41:58;;;;;;;0.50;0.50;;;19.40;99.90;;;;;;5105037;28;20300;-74
2023/10/11 11:44:27;;;;;;;1.58;1.25;;;19.40;99.90;;;;;;5105203;27;20047;-74
2023/10/11 11:46:56;;;;;;;0.73;0.73;;;19.40;99.90;;;;;;5073238;28;20138;-73
2023/10/11 11:49:27;;;;;;;0.20;0.20;;;19.40;99.90;;;;;;5104712;28;20039;-74
2023/10/11 11:51:55;;;;;;;2.85;0.80;;;19.50;99.90;;;;;;5104642;28;20515;-74
2023/10/11 11:54:27;;;;;;;0.40;0.40;;;19.60;99.90;;;;;;5088744;28;20232;-74
2023/10/11 11:56:54;;;;;;;0.75;0.75;;;19.70;99.90;;;;;;5105122;28;20048;-74
2023/10/11 11:59:29;;;;;;;0.20;0.20;;;19.70;99.90;;;;;;5105875;28;20160;-74
2023/10/11 12:02:01;;;;;;;0.70;0.70;;;19.60;99.90;;;;;;5107451;28;20539;-73
2023/10/11 12:04:32;;;;;;;0.43;0.43;;;19.50;99.90;;;;;;5104797;28;20050;-74
2023/10/11 12:07:03;;;;;;;0.40;0.40;;;19.50;99.90;;;;;;5103048;28;20063;-74
2023/10/11 12:09:33;;;;;;;1.13;0.90;;;19.60;99.90;;;;;;5100490;28;20528;-74
2023/10/11 12:12:05;;;;;;;0.38;0.38;;;19.50;99.90;;;;;;5107133;28;20155;-73
2023/10/11 12:14:31;;;;;;;0.28;0.28;;;19.50;99.90;;;;;;5104847;28;20122;-74
2023/10/11 12:16:58;;;;;;;0.65;0.65;;;19.50;99.90;;;;;;5106697;28;20062;-74
2023/10/11 12:19:24;;;;;;;0.30;0.30;;;19.50;99.90;;;;;;5104014;28;20489;-74
2023/10/11 12:21:51;;;;;;;0.38;0.38;;;19.60;99.90;;;;;;5107591;28;20404;-74
2023/10/11 12:24:21;;;;;;;0.57;0.57;;;19.70;99.90;;;;;;5104367;28;20059;-74
2023/10/11 12:26:46;;;;;;;1.45;1.10;;;19.80;99.90;;;;;;5104867;28;20052;-73
2023/10/11 12:29:14;;;;;;;1.48;1.23;;;19.80;99.90;;;;;;5101913;28;20036;-73
2023/10/11 12:31:41;;;;;;;0.40;0.40;;;19.90;99.90;;;;;;5105775;28;20043;-74
2023/10/11 12:34:09;;;;;;;0.70;0.70;;;19.90;99.90;;;;;;5103952;28;20086;-74
2023/10/11 12:36:39;;;;;;;0.85;0.85;;;19.80;99.90;;;;;;5086162;28;20039;-75
2023/10/11 12:39:20;;;;;;;0.38;0.38;;;19.80;99.90;;;;;;5084783;28;20078;-74
2023/10/11 12:41:50;;;;;;;0.30;0.30;;;19.70;99.90;;;;;;5091468;28;20047;-74
2023/10/11 12:44:17;;;;;;;0.68;0.68;;;19.60;99.90;;;;;;5099508;28;20080;-74
2023/10/11 12:46:42;;;;;;;0.30;0.30;;;19.50;99.90;;;;;;5103279;28;20132;-74
2023/10/11 12:49:14;;;;;;;0.57;0.40;;;19.50;99.90;;;;;;5102230;28;20125;-73
2023/10/11 12:51:42;;;;;;;0.60;0.60;;;19.40;99.90;;;;;;5106108;28;20070;-74
2023/10/11 12:54:20;;;;;;;0.98;0.50;;;19.40;99.90;;;;;;5104117;28;20100;-73
2023/10/11 12:56:46;;;;;;;0.60;0.60;;;19.40;99.90;;;;;;5107891;27;20545;-73
2023/10/11 12:59:16;;;;;;;0.70;0.70;;;19.40;99.90;;;;;;5118386;27;20043;-74
2023/10/11 13:01:55;;;;;;;1.27;1.23;;;19.30;99.90;;;;;;5093221;28;20100;-74
2023/10/11 13:04:29;;;;;;;0.43;0.43;;;19.30;99.90;;;;;;5109254;28;20114;-74
2023/10/11 13:06:59;;;;;;;0.60;0.60;;;19.30;99.90;;;;;;5110148;28;20046;-74
2023/10/11 13:09:27;;;;;;;0.38;0.38;;;19.30;99.90;;;;;;5092001;28;20039;-73
2023/10/11 13:11:57;;;;;;;0.93;0.82;;;19.30;99.90;;;;;;5086024;28;20111;-74
2023/10/11 13:14:23;;;;;;;0.50;0.50;;;19.40;99.90;;;;;;5107521;28;20043;-73
2023/10/11 13:16:54;;;;;;;0.65;0.65;;;19.50;99.90;;;;;;5112350;27;20048;-75
2023/10/11 13:19:26;;;;;;;0.63;0.63;;;19.50;99.90;;;;;;5106112;28;20100;-74
2023/10/11 13:21:54;;;;;;;0.57;0.57;;;19.50;99.90;;;;;;5108647;27;20057;-73
2023/10/11 13:24:25;;;;;;;0.20;0.20;;;19.30;99.90;;;;;;5107638;28;20047;-74
2023/10/11 13:26:52;;;;;;;0.40;0.40;;;19.20;99.90;;;;;;5089964;28;20418;-74
2023/10/11 13:29:18;;;;;;;0.32;0.32;;;19.10;99.90;;;;;;5108910;27;20046;-74
2023/10/11 13:31:53;;;;;;;1.30;1.20;;;18.80;99.90;;;;;;5107249;28;20507;-74
2023/10/11 13:34:19;;;;;;;0.80;0.45;;;18.60;99.90;;;;;;5104770;28;20101;-75
2023/10/11 13:36:45;;;;;;;0.50;0.50;;;18.60;99.90;;;;;;5110589;27;20047;-75
2023/10/11 13:39:26;;;;;;;;;;;18.50;99.90;;;;;;5108789;27;20142;-74
2023/10/11 13:42:14;;;;;;;0.50;0.50;;;18.50;99.90;;;;;;5091505;28;19930;-75